createdAt,value
2023-03-29T00:00:39.025Z,48.23
2023-03-29T00:03:06.278Z,48.21
2023-03-29T00:05:36.476Z,48.23
2023-03-29T00:08:04.702Z,48.24
2023-03-29T00:10:34.013Z,48.48
2023-03-29T00:13:01.993Z,48.04
2023-03-29T00:15:29.129Z,48.77
2023-03-29T00:17:56.451Z,49.47
2023-03-29T00:20:23.759Z,49.47
2023-03-29T00:22:51.239Z,50.00
2023-03-29T00:25:18.399Z,49.92
2023-03-29T00:27:45.523Z,49.38
2023-03-29T00:30:15.545Z,49.26
2023-03-29T00:32:43.170Z,49.50
2023-03-29T00:35:11.357Z,49.86
2023-03-29T00:37:38.662Z,49.34
2023-03-29T00:40:12.557Z,49.62
2023-03-29T00:42:39.718Z,49.13
2023-03-29T00:45:12.812Z,49.18
2023-03-29T00:47:53.283Z,48.88
2023-03-29T00:50:32.902Z,49.06
2023-03-29T00:53:10.148Z,48.96
2023-03-29T00:55:46.259Z,48.63
2023-03-29T00:58:18.503Z,49.19
2023-03-29T01:00:53.236Z,49.69
2023-03-29T01:03:25.341Z,49.26
2023-03-29T01:06:00.503Z,49.35
2023-03-29T01:08:35.053Z,49.45
2023-03-29T01:11:15.469Z,49.32
2023-03-29T01:14:03.894Z,49.07
2023-03-29T01:16:38.588Z,49.01
2023-03-29T01:19:15.351Z,49.95
2023-03-29T01:21:52.676Z,48.77
2023-03-29T01:24:26.295Z,49.67
2023-03-29T01:27:16.186Z,48.51
2023-03-29T01:29:49.224Z,48.42
2023-03-29T01:32:31.100Z,49.00
2023-03-29T01:35:01.357Z,48.45
2023-03-29T01:37:40.678Z,48.40
2023-03-29T01:40:08.422Z,48.22
2023-03-29T01:42:51.771Z,48.17
2023-03-29T01:45:51.960Z,47.83
2023-03-29T01:48:37.478Z,48.42
2023-03-29T01:51:24.410Z,48.74
2023-03-29T01:54:09.811Z,48.83
2023-03-29T01:56:44.290Z,49.36
2023-03-29T01:59:17.527Z,48.49
2023-03-29T02:01:52.626Z,48.20
2023-03-29T02:04:31.888Z,48.37
2023-03-29T02:07:01.951Z,48.22
2023-03-29T02:09:36.724Z,48.15
2023-03-29T02:12:07.221Z,48.20
2023-03-29T02:14:35.456Z,48.14
2023-03-29T02:17:32.298Z,47.65
2023-03-29T02:20:15.395Z,48.72
2023-03-29T02:23:01.951Z,48.70
2023-03-29T02:25:36.221Z,48.67
2023-03-29T02:28:06.142Z,48.88
2023-03-29T02:30:40.158Z,48.85
2023-03-29T02:33:36.188Z,48.83
2023-03-29T02:36:17.978Z,48.95
2023-03-29T02:38:46.557Z,48.26
2023-03-29T02:41:14.566Z,48.71
2023-03-29T02:43:43.700Z,49.23
2023-03-29T02:46:13.468Z,48.71
2023-03-29T02:48:41.136Z,48.54
2023-03-29T02:51:30.086Z,49.25
2023-03-29T02:54:11.742Z,48.95
2023-03-29T02:56:51.219Z,49.22
2023-03-29T02:59:25.024Z,48.64
2023-03-29T03:01:53.682Z,48.90
2023-03-29T03:04:25.909Z,48.68
2023-03-29T03:06:53.938Z,49.24
2023-03-29T03:09:21.639Z,48.61
2023-03-29T03:11:49.166Z,48.32
2023-03-29T03:14:25.063Z,48.31
2023-03-29T03:16:55.650Z,48.69
2023-03-29T03:19:24.643Z,48.79
2023-03-29T03:21:58.477Z,48.35
2023-03-29T03:24:29.238Z,49.20
2023-03-29T03:26:58.397Z,48.90
2023-03-29T03:29:26.394Z,49.04
2023-03-29T03:32:17.447Z,49.10
2023-03-29T03:34:53.558Z,49.48
2023-03-29T03:37:24.203Z,49.90
2023-03-29T03:39:54.785Z,49.88
2023-03-29T03:42:24.098Z,49.51
2023-03-29T03:44:54.658Z,49.78
2023-03-29T03:47:42.360Z,49.90
2023-03-29T03:50:20.960Z,50.71
2023-03-29T03:52:52.460Z,50.37
2023-03-29T03:55:25.398Z,50.98
2023-03-29T03:58:15.020Z,50.92
2023-03-29T04:00:43.020Z,51.05
2023-03-29T04:03:28.642Z,51.42
2023-03-29T04:05:56.264Z,51.57
2023-03-29T04:08:27.572Z,51.57
2023-03-29T04:11:20.964Z,51.58
2023-03-29T04:13:49.328Z,52.09
2023-03-29T04:16:31.088Z,52.09
2023-03-29T04:19:11.244Z,52.08
2023-03-29T04:21:43.261Z,52.43
2023-03-29T04:24:10.655Z,51.97
2023-03-29T04:26:40.741Z,53.00
2023-03-29T04:29:15.478Z,52.18
2023-03-29T04:31:47.722Z,52.55
2023-03-29T04:34:43.134Z,52.57
2023-03-29T04:37:10.909Z,52.91
2023-03-29T04:39:39.559Z,52.58
2023-03-29T04:42:09.231Z,52.76
2023-03-29T04:44:40.232Z,53.46
2023-03-29T04:47:11.940Z,52.69
2023-03-29T04:49:39.227Z,52.72
2023-03-29T04:52:11.547Z,53.34
2023-03-29T04:54:38.613Z,53.02
2023-03-29T04:57:19.094Z,53.45
2023-03-29T04:59:56.003Z,53.04
2023-03-29T05:02:49.498Z,52.78
2023-03-29T05:05:16.951Z,52.75
2023-03-29T05:07:48.169Z,53.34
2023-03-29T05:10:18.295Z,52.98
2023-03-29T05:12:45.813Z,53.32
2023-03-29T05:15:13.586Z,52.65
2023-03-29T05:17:40.978Z,53.21
2023-03-29T05:20:12.833Z,52.35
2023-03-29T05:22:42.753Z,52.37
2023-03-29T05:25:14.159Z,52.72
2023-03-29T05:27:43.537Z,52.72
2023-03-29T05:30:11.737Z,53.09
2023-03-29T05:33:01.755Z,53.88
2023-03-29T05:35:30.083Z,53.59
2023-03-29T05:37:58.252Z,53.90
2023-03-29T05:40:26.349Z,53.36
2023-03-29T05:43:16.629Z,53.10
2023-03-29T05:45:44.006Z,52.93
2023-03-29T05:48:19.972Z,53.43
2023-03-29T05:50:52.408Z,53.22
2023-03-29T05:53:22.786Z,53.26
2023-03-29T05:55:51.319Z,53.16
2023-03-29T05:58:21.777Z,52.78
2023-03-29T06:00:49.968Z,52.88
2023-03-29T06:03:34.038Z,52.71
2023-03-29T06:06:04.355Z,53.17
2023-03-29T06:08:35.276Z,52.47
2023-03-29T06:11:13.942Z,52.86
2023-03-29T06:13:59.989Z,52.24
2023-03-29T06:16:29.445Z,52.12
2023-03-29T06:18:57.317Z,52.32
2023-03-29T06:21:29.313Z,51.83
2023-03-29T06:24:00.447Z,50.60
2023-03-29T06:26:33.253Z,51.14
2023-03-29T06:29:04.431Z,50.64
2023-03-29T06:31:36.526Z,50.04
2023-03-29T06:34:08.993Z,49.21
2023-03-29T06:36:41.262Z,49.08
2023-03-29T06:39:09.189Z,49.27
2023-03-29T06:41:57.056Z,49.45
2023-03-29T06:44:48.334Z,48.79
2023-03-29T06:47:20.281Z,47.94
2023-03-29T06:49:47.671Z,47.27
2023-03-29T06:52:31.369Z,46.86
2023-03-29T06:54:58.579Z,46.54
2023-03-29T06:57:27.731Z,45.68
2023-03-29T06:59:57.980Z,45.36
2023-03-29T07:02:50.536Z,44.13
2023-03-29T07:05:18.626Z,43.72
2023-03-29T07:08:05.549Z,44.52
2023-03-29T07:10:53.591Z,45.16
2023-03-29T07:13:42.750Z,44.80
2023-03-29T07:16:17.523Z,44.61
2023-03-29T07:18:51.681Z,44.21
2023-03-29T07:21:37.851Z,44.05
2023-03-29T07:24:07.011Z,44.00
2023-03-29T07:26:35.760Z,43.28
2023-03-29T07:29:06.699Z,43.81
2023-03-29T07:31:36.462Z,42.86
2023-03-29T07:34:24.545Z,42.96
2023-03-29T07:36:52.237Z,43.28
2023-03-29T07:39:20.615Z,43.41
2023-03-29T07:42:07.282Z,43.22
2023-03-29T07:44:37.513Z,42.88
2023-03-29T07:47:10.750Z,43.49
2023-03-29T07:49:38.847Z,43.34
2023-03-29T07:52:32.301Z,42.63
2023-03-29T07:54:59.514Z,42.71
2023-03-29T07:57:38.858Z,42.61
2023-03-29T08:00:16.358Z,41.92
2023-03-29T08:02:52.981Z,41.49
2023-03-29T08:05:37.724Z,41.69
2023-03-29T08:08:10.838Z,42.02
2023-03-29T08:11:06.899Z,42.00
2023-03-29T08:13:43.692Z,41.64
2023-03-29T08:16:39.716Z,42.03
2023-03-29T08:19:12.070Z,42.13
2023-03-29T08:21:52.189Z,42.09
2023-03-29T08:24:21.711Z,41.76
2023-03-29T08:26:53.813Z,41.65
2023-03-29T08:29:21.214Z,41.70
2023-03-29T08:31:49.284Z,41.59
2023-03-29T08:34:17.532Z,42.28
2023-03-29T08:37:11.231Z,42.53
2023-03-29T08:39:43.450Z,41.78
2023-03-29T08:42:46.911Z,42.24
2023-03-29T08:45:26.803Z,42.46
2023-03-29T08:48:03.172Z,42.26
2023-03-29T08:50:48.113Z,42.60
2023-03-29T08:53:27.411Z,41.47
2023-03-29T08:56:27.005Z,41.95
2023-03-29T08:59:34.620Z,41.67
2023-03-29T09:02:17.736Z,42.03
2023-03-29T09:04:49.024Z,41.87
2023-03-29T09:07:40.416Z,42.25
2023-03-29T09:10:15.298Z,42.41
2023-03-29T09:13:07.739Z,44.02
2023-03-29T09:16:07.482Z,43.69
2023-03-29T09:19:10.866Z,43.80
2023-03-29T09:22:06.277Z,43.33
2023-03-29T09:24:54.268Z,43.24
2023-03-29T09:27:28.915Z,43.33
2023-03-29T09:30:41.929Z,43.30
2023-03-29T09:33:32.267Z,41.86
2023-03-29T09:36:31.914Z,40.60
2023-03-29T09:38:59.977Z,39.31
2023-03-29T09:41:41.833Z,37.35
2023-03-29T09:44:30.339Z,37.41
2023-03-29T09:47:28.172Z,37.22
2023-03-29T09:50:03.248Z,37.67
2023-03-29T09:52:31.812Z,37.60
2023-03-29T09:55:08.050Z,38.17
2023-03-29T09:58:06.191Z,37.50
2023-03-29T10:00:40.352Z,34.69
2023-03-29T10:03:10.174Z,33.14
2023-03-29T10:05:50.392Z,32.73
2023-03-29T10:08:30.765Z,32.60
2023-03-29T10:11:02.460Z,32.59
2023-03-29T10:13:33.152Z,32.20
2023-03-29T10:16:09.417Z,28.48
2023-03-29T10:18:42.104Z,29.03
2023-03-29T10:21:16.009Z,29.08
2023-03-29T10:23:44.610Z,27.83
2023-03-29T10:26:29.861Z,27.73
2023-03-29T10:29:00.553Z,27.14
2023-03-29T10:31:33.878Z,28.13
2023-03-29T10:34:05.413Z,27.03
2023-03-29T10:36:33.614Z,26.40
2023-03-29T10:39:06.030Z,26.92
2023-03-29T10:41:40.740Z,27.15
2023-03-29T10:44:35.292Z,25.09
2023-03-29T10:47:34.714Z,25.41
2023-03-29T10:50:07.797Z,26.82
2023-03-29T10:52:34.944Z,26.60
2023-03-29T10:55:04.753Z,26.00
2023-03-29T10:57:46.869Z,24.37
2023-03-29T11:00:37.450Z,23.85
2023-03-29T11:03:35.455Z,23.47
2023-03-29T11:06:33.396Z,22.71
2023-03-29T11:09:08.422Z,20.97
2023-03-29T11:12:08.561Z,19.38
2023-03-29T11:14:57.083Z,18.17
2023-03-29T11:17:34.356Z,18.69
2023-03-29T11:20:12.879Z,18.12
2023-03-29T11:22:49.205Z,18.29
2023-03-29T11:25:48.369Z,20.34
2023-03-29T11:28:32.305Z,19.01
2023-03-29T11:31:11.936Z,16.93
2023-03-29T11:33:38.946Z,14.32
2023-03-29T11:36:39.773Z,14.00
2023-03-29T11:39:34.344Z,14.81
2023-03-29T11:42:21.421Z,17.21
2023-03-29T11:45:00.032Z,18.58
2023-03-29T11:47:39.062Z,17.15
2023-03-29T11:50:16.822Z,16.66
2023-03-29T11:52:50.630Z,14.76
2023-03-29T11:55:29.671Z,13.69
2023-03-29T11:58:11.446Z,16.60
2023-03-29T12:01:04.464Z,19.06
2023-03-29T12:03:47.355Z,16.65
2023-03-29T12:06:22.730Z,14.98
2023-03-29T12:09:02.380Z,14.00
2023-03-29T12:11:40.718Z,14.14
2023-03-29T12:14:28.062Z,13.18
2023-03-29T12:17:02.244Z,12.66
2023-03-29T12:19:41.020Z,13.11
2023-03-29T12:22:11.311Z,14.49
2023-03-29T12:24:47.101Z,15.69
2023-03-29T12:27:37.843Z,16.56
2023-03-29T12:30:32.545Z,18.04
2023-03-29T12:33:31.854Z,19.30
2023-03-29T12:36:41.513Z,19.68
2023-03-29T12:39:37.466Z,20.40
2023-03-29T12:42:24.215Z,21.39
2023-03-29T12:45:34.193Z,21.89
2023-03-29T12:48:02.120Z,23.10
2023-03-29T12:50:37.023Z,23.59
2023-03-29T12:53:22.133Z,23.95
2023-03-29T12:55:55.308Z,24.14
2023-03-29T12:58:41.960Z,25.06
2023-03-29T13:01:29.696Z,24.64
2023-03-29T13:04:10.976Z,24.92
2023-03-29T13:06:56.353Z,25.02
2023-03-29T13:09:23.117Z,26.33
2023-03-29T13:11:54.233Z,26.38
2023-03-29T13:14:26.108Z,26.29
2023-03-29T13:16:55.198Z,26.99
2023-03-29T13:19:38.541Z,27.11
2023-03-29T13:22:19.051Z,27.04
2023-03-29T13:25:07.195Z,27.16
2023-03-29T13:27:43.846Z,27.87
2023-03-29T13:30:32.955Z,27.16
2023-03-29T13:33:15.697Z,27.57
2023-03-29T13:36:03.304Z,27.93
2023-03-29T13:38:35.165Z,28.03
2023-03-29T13:41:07.492Z,28.43
2023-03-29T13:43:37.913Z,28.79
2023-03-29T13:46:24.820Z,29.38
2023-03-29T13:49:22.217Z,29.50
2023-03-29T13:55:04.623Z,30.30
2023-03-29T13:57:33.943Z,30.55
2023-03-29T14:00:11.987Z,30.53
2023-03-29T14:02:49.430Z,30.60
2023-03-29T14:05:28.886Z,31.01
2023-03-29T14:07:57.052Z,31.12
2023-03-29T14:10:35.154Z,31.47
2023-03-29T14:13:07.496Z,31.30
2023-03-29T14:15:55.468Z,30.48
2023-03-29T14:18:25.702Z,30.67
2023-03-29T14:20:55.578Z,30.35
2023-03-29T14:23:30.161Z,30.59
2023-03-29T14:26:08.003Z,31.46
2023-03-29T14:28:35.465Z,31.66
2023-03-29T14:31:02.569Z,31.63
2023-03-29T14:33:38.633Z,31.63
2023-03-29T14:36:06.749Z,31.12
2023-03-29T14:38:37.627Z,31.27
2023-03-29T14:41:06.182Z,31.40
2023-03-29T14:43:33.566Z,31.77
2023-03-29T14:46:04.890Z,32.10
2023-03-29T14:48:35.890Z,32.43
2023-03-29T14:51:06.600Z,32.84
2023-03-29T14:53:37.442Z,33.09
2023-03-29T14:56:06.979Z,33.04
2023-03-29T14:58:36.537Z,33.48
2023-03-29T15:01:08.005Z,33.96
2023-03-29T15:03:57.083Z,34.46
2023-03-29T15:06:26.429Z,34.30
2023-03-29T15:09:04.335Z,34.57
2023-03-29T15:11:34.588Z,34.65
2023-03-29T15:14:01.827Z,35.57
2023-03-29T15:16:30.752Z,35.68
2023-03-29T15:18:58.735Z,35.91
2023-03-29T15:21:35.472Z,35.71
2023-03-29T15:24:04.365Z,35.43
2023-03-29T15:26:37.377Z,35.58
2023-03-29T15:29:25.711Z,35.73
2023-03-29T15:31:57.987Z,36.53
2023-03-29T15:34:27.928Z,37.28
2023-03-29T15:36:59.096Z,37.75
2023-03-29T15:39:31.017Z,38.05
2023-03-29T15:41:59.272Z,38.82
2023-03-29T15:44:33.808Z,39.16
2023-03-29T15:47:02.773Z,39.20
2023-03-29T15:49:30.314Z,39.77
2023-03-29T15:51:58.636Z,39.40
2023-03-29T15:54:26.742Z,39.55
2023-03-29T15:57:03.621Z,39.68
2023-03-29T15:59:32.034Z,39.50
2023-03-29T16:02:02.964Z,39.63
2023-03-29T16:04:33.001Z,39.57
2023-03-29T16:07:16.244Z,39.86
2023-03-29T16:09:44.299Z,39.81
2023-03-29T16:12:12.628Z,39.57
2023-03-29T16:14:43.312Z,39.46
2023-03-29T16:17:14.937Z,39.74
2023-03-29T16:19:45.487Z,39.65
2023-03-29T16:22:23.806Z,39.52
2023-03-29T16:24:51.713Z,39.20
2023-03-29T16:27:21.634Z,39.03
2023-03-29T16:29:49.219Z,38.79
2023-03-29T16:32:17.124Z,39.35
2023-03-29T16:34:50.120Z,39.42
2023-03-29T16:37:18.352Z,39.32
2023-03-29T16:39:49.617Z,39.27
2023-03-29T16:42:25.946Z,39.01
2023-03-29T16:45:00.807Z,39.93
2023-03-29T16:47:28.336Z,39.89
2023-03-29T16:49:55.727Z,39.42
2023-03-29T16:52:23.789Z,39.46
2023-03-29T16:54:56.975Z,39.61
2023-03-29T16:57:27.320Z,40.27
2023-03-29T16:59:56.415Z,40.93
2023-03-29T17:02:26.945Z,40.94
2023-03-29T17:04:57.708Z,41.18
2023-03-29T17:07:29.939Z,41.30
2023-03-29T17:09:57.942Z,41.58
2023-03-29T17:12:25.056Z,41.69
2023-03-29T17:14:55.818Z,41.62
2023-03-29T17:17:23.527Z,41.01
2023-03-29T17:19:50.414Z,41.32
2023-03-29T17:22:21.251Z,41.31
2023-03-29T17:24:53.425Z,40.74
2023-03-29T17:27:22.031Z,40.88
2023-03-29T17:29:55.138Z,40.76
2023-03-29T17:32:32.867Z,40.81
2023-03-29T17:35:00.473Z,40.78
2023-03-29T17:37:28.832Z,40.83
2023-03-29T17:39:56.162Z,40.76
2023-03-29T17:42:25.760Z,40.77
2023-03-29T17:44:53.487Z,41.38
2023-03-29T17:47:20.877Z,41.16
2023-03-29T17:49:48.472Z,41.36
2023-03-29T17:52:16.097Z,41.31
2023-03-29T17:54:42.890Z,41.18
2023-03-29T17:57:09.848Z,41.35
2023-03-29T17:59:38.347Z,41.07
2023-03-29T18:02:06.141Z,41.62
2023-03-29T18:04:34.457Z,41.69
2023-03-29T18:07:01.518Z,42.14
2023-03-29T18:09:30.716Z,42.30
2023-03-29T18:11:58.807Z,42.13
2023-03-29T18:14:26.827Z,42.17
2023-03-29T18:16:54.063Z,42.43
2023-03-29T18:19:21.528Z,42.84
2023-03-29T18:21:49.344Z,42.69
2023-03-29T18:24:20.273Z,42.59
2023-03-29T18:26:47.403Z,42.58
2023-03-29T18:29:16.023Z,43.09
2023-03-29T18:31:47.028Z,42.75
2023-03-29T18:34:15.075Z,42.69
2023-03-29T18:36:42.734Z,42.97
2023-03-29T18:39:11.300Z,43.07
2023-03-29T18:41:40.914Z,42.91
2023-03-29T18:44:16.444Z,43.26
2023-03-29T18:46:43.509Z,43.06
2023-03-29T18:49:13.177Z,42.83
2023-03-29T18:51:40.299Z,43.16
2023-03-29T18:54:08.971Z,43.37
2023-03-29T18:56:36.041Z,43.44
2023-03-29T18:59:06.156Z,43.51
2023-03-29T19:01:34.818Z,43.86
2023-03-29T19:04:01.837Z,43.57
2023-03-29T19:06:28.779Z,43.57
2023-03-29T19:08:58.239Z,43.51
2023-03-29T19:11:28.364Z,43.89
2023-03-29T19:13:59.103Z,43.51
2023-03-29T19:16:27.562Z,44.00
2023-03-29T19:18:54.960Z,43.61
2023-03-29T19:21:24.393Z,43.79
2023-03-29T19:23:53.090Z,43.19
2023-03-29T19:26:20.093Z,43.22
2023-03-29T19:28:47.033Z,42.98
2023-03-29T19:31:20.058Z,42.81
2023-03-29T19:33:46.989Z,42.65
2023-03-29T19:36:14.200Z,42.47
2023-03-29T19:38:41.616Z,41.89
2023-03-29T19:41:09.058Z,42.08
2023-03-29T19:43:36.385Z,42.01
2023-03-29T19:46:11.803Z,42.15
2023-03-29T19:48:40.415Z,42.04
2023-03-29T19:51:08.894Z,42.59
2023-03-29T19:53:38.462Z,41.92
2023-03-29T19:56:07.738Z,42.24
2023-03-29T19:58:39.385Z,42.24
2023-03-29T20:01:06.589Z,42.05
2023-03-29T20:03:34.370Z,42.13
2023-03-29T20:06:02.028Z,41.90
2023-03-29T20:08:29.117Z,41.81
2023-03-29T20:11:02.157Z,41.65
2023-03-29T20:13:38.344Z,41.84
2023-03-29T20:16:16.289Z,41.23
2023-03-29T20:18:47.004Z,41.52
2023-03-29T20:21:17.064Z,41.68
2023-03-29T20:23:44.301Z,41.56
2023-03-29T20:26:11.391Z,41.47
2023-03-29T20:28:38.380Z,41.70
2023-03-29T20:31:11.304Z,42.00
2023-03-29T20:33:39.046Z,41.86
2023-03-29T20:36:12.661Z,41.85
2023-03-29T20:38:39.861Z,41.92
2023-03-29T20:41:09.435Z,41.91
2023-03-29T20:43:41.221Z,41.58
2023-03-29T20:46:18.278Z,41.89
2023-03-29T20:48:54.689Z,42.38
2023-03-29T20:51:33.041Z,42.03
2023-03-29T20:54:05.106Z,41.85
2023-03-29T20:56:34.338Z,42.16
2023-03-29T20:59:01.850Z,42.16
2023-03-29T21:01:30.093Z,42.31
2023-03-29T21:03:57.262Z,42.14
2023-03-29T21:06:24.793Z,42.46
2023-03-29T21:08:52.630Z,42.44
2023-03-29T21:11:20.963Z,42.12
2023-03-29T21:13:49.269Z,42.34
2023-03-29T21:16:19.876Z,42.56
2023-03-29T21:18:47.454Z,42.67
2023-03-29T21:21:17.263Z,42.78
2023-03-29T21:23:43.946Z,42.58
2023-03-29T21:26:10.681Z,42.29
2023-03-29T21:28:37.750Z,43.26
2023-03-29T21:31:06.225Z,43.13
2023-03-29T21:33:34.253Z,43.45
2023-03-29T21:36:01.304Z,43.11
2023-03-29T21:38:28.732Z,43.37
2023-03-29T21:40:55.912Z,43.37
2023-03-29T21:43:22.953Z,43.43
2023-03-29T21:45:50.375Z,43.46
2023-03-29T21:48:18.005Z,43.28
2023-03-29T21:50:49.019Z,43.61
2023-03-29T21:53:16.147Z,43.08
2023-03-29T21:55:43.912Z,43.41
2023-03-29T21:58:11.903Z,43.12
2023-03-29T22:00:38.607Z,42.94
2023-03-29T22:03:06.303Z,43.27
2023-03-29T22:05:33.265Z,43.06
2023-03-29T22:08:00.379Z,43.09
2023-03-29T22:10:27.541Z,43.03
2023-03-29T22:12:54.298Z,42.64
2023-03-29T22:15:21.123Z,42.43
2023-03-29T22:17:48.379Z,42.26
2023-03-29T22:20:15.598Z,42.20
2023-03-29T22:22:49.904Z,42.28
2023-03-29T22:25:18.708Z,41.81
2023-03-29T22:27:47.569Z,42.08
2023-03-29T22:30:15.998Z,41.49
2023-03-29T22:32:43.270Z,41.75
2023-03-29T22:35:10.709Z,41.75
2023-03-29T22:37:43.152Z,41.89
2023-03-29T22:40:11.474Z,41.49
2023-03-29T22:42:38.403Z,41.83
2023-03-29T22:45:06.554Z,41.83
2023-03-29T22:47:35.546Z,41.83
2023-03-29T22:50:02.539Z,41.17
2023-03-29T22:52:29.265Z,41.47
2023-03-29T22:54:55.959Z,41.45
2023-03-29T22:57:22.744Z,41.25
2023-03-29T22:59:49.516Z,41.63
2023-03-29T23:02:16.289Z,41.64
2023-03-29T23:04:45.389Z,41.51
2023-03-29T23:07:12.308Z,41.39
2023-03-29T23:09:38.957Z,41.83
2023-03-29T23:12:05.810Z,41.65
2023-03-29T23:14:33.752Z,41.35
2023-03-29T23:17:00.488Z,41.46
2023-03-29T23:19:27.214Z,41.73
2023-03-29T23:21:55.162Z,41.03
2023-03-29T23:24:21.896Z,41.31
2023-03-29T23:26:49.232Z,41.37
2023-03-29T23:29:16.316Z,41.36
2023-03-29T23:31:44.312Z,41.36
2023-03-29T23:34:13.613Z,43.09
2023-03-29T23:36:40.849Z,44.26
2023-03-29T23:39:08.278Z,44.44
2023-03-29T23:41:36.227Z,45.07
2023-03-29T23:44:04.474Z,44.47
2023-03-29T23:46:33.846Z,45.07
2023-03-29T23:49:00.689Z,45.40
2023-03-29T23:51:30.619Z,45.53
2023-03-29T23:53:58.699Z,45.54
2023-03-29T23:56:25.470Z,45.26
2023-03-29T23:58:52.322Z,45.19
